sensor_id;sensor_type;location;lat;lon;timestamp;pressure;altitude;pressure_sealevel;temperature
69420;BMP280;71621;52.030;113.516;2023-09-18T00:01:55;93354.44;;;8.21
69420;BMP280;71621;52.030;113.516;2023-09-18T00:04:58;93348.88;;;8.37
69420;BMP280;71621;52.030;113.516;2023-09-18T00:08:03;93355.75;;;8.46
69420;BMP280;71621;52.030;113.516;2023-09-18T00:11:06;93351.06;;;8.45
69420;BMP280;71621;52.030;113.516;2023-09-18T00:14:10;93350.56;;;8.50
69420;BMP280;71621;52.030;113.516;2023-09-18T00:17:14;93351.38;;;8.57
69420;BMP280;71621;52.030;113.516;2023-09-18T00:20:18;93360.16;;;8.62
69420;BMP280;71621;52.030;113.516;2023-09-18T00:23:21;93354.31;;;8.67
69420;BMP280;71621;52.030;113.516;2023-09-18T00:26:25;93358.44;;;8.72
69420;BMP280;71621;52.030;113.516;2023-09-18T00:29:29;93365.34;;;8.81
69420;BMP280;71621;52.030;113.516;2023-09-18T00:32:33;93370.13;;;8.87
69420;BMP280;71621;52.030;113.516;2023-09-18T00:35:37;93368.28;;;8.93
69420;BMP280;71621;52.030;113.516;2023-09-18T00:38:41;93367.63;;;8.93
69420;BMP280;71621;52.030;113.516;2023-09-18T00:41:45;93374.88;;;8.90
69420;BMP280;71621;52.030;113.516;2023-09-18T00:44:52;93371.63;;;8.94
69420;BMP280;71621;52.030;113.516;2023-09-18T00:47:55;93365.84;;;9.02
69420;BMP280;71621;52.030;113.516;2023-09-18T00:51:01;93369.44;;;9.12
69420;BMP280;71621;52.030;113.516;2023-09-18T00:54:05;93371.66;;;9.22
69420;BMP280;71621;52.030;113.516;2023-09-18T00:57:10;93377.06;;;9.26
69420;BMP280;71621;52.030;113.516;2023-09-18T01:00:14;93381.78;;;9.28
69420;BMP280;71621;52.030;113.516;2023-09-18T01:03:21;93380.56;;;9.33
69420;BMP280;71621;52.030;113.516;2023-09-18T01:06:25;93382.97;;;9.48
69420;BMP280;71621;52.030;113.516;2023-09-18T01:09:34;93391.13;;;9.56
69420;BMP280;71621;52.030;113.516;2023-09-18T01:15:54;93394.91;;;9.77
69420;BMP280;71621;52.030;113.516;2023-09-18T01:19:01;93393.59;;;9.78
69420;BMP280;71621;52.030;113.516;2023-09-18T01:22:11;93393.72;;;9.82
69420;BMP280;71621;52.030;113.516;2023-09-18T01:25:14;93394.53;;;9.89
69420;BMP280;71621;52.030;113.516;2023-09-18T01:28:18;93391.31;;;9.97
69420;BMP280;71621;52.030;113.516;2023-09-18T01:31:22;93400.81;;;10.04
69420;BMP280;71621;52.030;113.516;2023-09-18T01:34:30;93399.72;;;10.15
69420;BMP280;71621;52.030;113.516;2023-09-18T01:37:37;93399.13;;;10.18
69420;BMP280;71621;52.030;113.516;2023-09-18T01:40:41;93403.25;;;10.23
69420;BMP280;71621;52.030;113.516;2023-09-18T01:43:45;93404.81;;;10.35
69420;BMP280;71621;52.030;113.516;2023-09-18T01:46:49;93404.22;;;10.40
69420;BMP280;71621;52.030;113.516;2023-09-18T01:49:54;93398.09;;;10.34
69420;BMP280;71621;52.030;113.516;2023-09-18T01:52:58;93398.16;;;10.38
69420;BMP280;71621;52.030;113.516;2023-09-18T01:56:02;93396.91;;;10.41
69420;BMP280;71621;52.030;113.516;2023-09-18T01:59:06;93394.34;;;10.47
69420;BMP280;71621;52.030;113.516;2023-09-18T02:02:10;93392.50;;;10.55
69420;BMP280;71621;52.030;113.516;2023-09-18T02:05:30;93390.66;;;10.64
69420;BMP280;71621;52.030;113.516;2023-09-18T02:08:34;93394.94;;;10.79
69420;BMP280;71621;52.030;113.516;2023-09-18T02:11:40;93390.94;;;10.80
69420;BMP280;71621;52.030;113.516;2023-09-18T02:14:45;93385.00;;;10.84
69420;BMP280;71621;52.030;113.516;2023-09-18T02:17:48;93376.50;;;10.94
69420;BMP280;71621;52.030;113.516;2023-09-18T02:20:52;93379.94;;;11.02
69420;BMP280;71621;52.030;113.516;2023-09-18T02:23:56;93388.09;;;11.10
69420;BMP280;71621;52.030;113.516;2023-09-18T02:26:59;93393.63;;;11.20
69420;BMP280;71621;52.030;113.516;2023-09-18T02:30:03;93399.94;;;11.37
69420;BMP280;71621;52.030;113.516;2023-09-18T02:33:07;93394.78;;;11.51
69420;BMP280;71621;52.030;113.516;2023-09-18T02:36:10;93388.19;;;11.58
69420;BMP280;71621;52.030;113.516;2023-09-18T02:39:14;93388.34;;;11.69
69420;BMP280;71621;52.030;113.516;2023-09-18T02:42:17;93391.19;;;11.81
69420;BMP280;71621;52.030;113.516;2023-09-18T02:45:21;93383.97;;;11.93
69420;BMP280;71621;52.030;113.516;2023-09-18T02:48:25;93384.81;;;12.06
69420;BMP280;71621;52.030;113.516;2023-09-18T02:51:28;93385.59;;;12.17
69420;BMP280;71621;52.030;113.516;2023-09-18T02:54:34;93385.13;;;12.33
69420;BMP280;71621;52.030;113.516;2023-09-18T02:57:38;93386.69;;;12.52
69420;BMP280;71621;52.030;113.516;2023-09-18T03:00:43;93394.22;;;12.68
69420;BMP280;71621;52.030;113.516;2023-09-18T03:03:47;93378.06;;;12.59
69420;BMP280;71621;52.030;113.516;2023-09-18T03:06:50;93387.41;;;12.58
69420;BMP280;71621;52.030;113.516;2023-09-18T03:09:55;93385.38;;;12.57
69420;BMP280;71621;52.030;113.516;2023-09-18T03:12:59;93380.09;;;12.63
69420;BMP280;71621;52.030;113.516;2023-09-18T03:16:04;93384.13;;;12.62
69420;BMP280;71621;52.030;113.516;2023-09-18T03:19:07;93374.72;;;12.63
69420;BMP280;71621;52.030;113.516;2023-09-18T03:22:12;93370.06;;;12.66
69420;BMP280;71621;52.030;113.516;2023-09-18T03:25:15;93368.16;;;12.76
69420;BMP280;71621;52.030;113.516;2023-09-18T03:28:19;93368.91;;;12.83
69420;BMP280;71621;52.030;113.516;2023-09-18T03:31:23;93372.28;;;12.87
69420;BMP280;71621;52.030;113.516;2023-09-18T03:34:27;93359.56;;;12.88
69420;BMP280;71621;52.030;113.516;2023-09-18T03:37:31;93355.59;;;12.93
69420;BMP280;71621;52.030;113.516;2023-09-18T03:40:34;93352.22;;;12.96
69420;BMP280;71621;52.030;113.516;2023-09-18T03:43:38;93351.03;;;13.12
69420;BMP280;71621;52.030;113.516;2023-09-18T03:46:42;93343.72;;;13.20
69420;BMP280;71621;52.030;113.516;2023-09-18T03:49:45;93346.50;;;13.35
69420;BMP280;71621;52.030;113.516;2023-09-18T03:52:51;93345.25;;;13.48
69420;BMP280;71621;52.030;113.516;2023-09-18T03:55:54;93343.94;;;13.57
69420;BMP280;71621;52.030;113.516;2023-09-18T03:58:58;93339.28;;;13.61
69420;BMP280;71621;52.030;113.516;2023-09-18T04:02:04;93339.31;;;13.67
69420;BMP280;71621;52.030;113.516;2023-09-18T04:05:08;93335.31;;;13.75
69420;BMP280;71621;52.030;113.516;2023-09-18T04:08:12;93330.00;;;13.87
69420;BMP280;71621;52.030;113.516;2023-09-18T04:11:16;93334.75;;;13.98
69420;BMP280;71621;52.030;113.516;2023-09-18T04:14:20;93331.41;;;14.06
69420;BMP280;71621;52.030;113.516;2023-09-18T04:17:24;93328.75;;;14.10
69420;BMP280;71621;52.030;113.516;2023-09-18T04:20:27;93324.75;;;14.21
69420;BMP280;71621;52.030;113.516;2023-09-18T04:23:31;93322.09;;;14.37
69420;BMP280;71621;52.030;113.516;2023-09-18T04:26:36;93319.44;;;14.56
69420;BMP280;71621;52.030;113.516;2023-09-18T04:29:41;93315.44;;;14.69
69420;BMP280;71621;52.030;113.516;2023-09-18T04:32:44;93308.69;;;14.80
69420;BMP280;71621;52.030;113.516;2023-09-18T04:35:48;93310.69;;;14.98
69420;BMP280;71621;52.030;113.516;2023-09-18T04:38:51;93309.34;;;15.15
69420;BMP280;71621;52.030;113.516;2023-09-18T04:41:56;93303.25;;;15.35
69420;BMP280;71621;52.030;113.516;2023-09-18T04:44:59;93303.22;;;15.53
69420;BMP280;71621;52.030;113.516;2023-09-18T04:48:03;93308.53;;;15.69
69420;BMP280;71621;52.030;113.516;2023-09-18T04:51:08;93302.47;;;15.79
69420;BMP280;71621;52.030;113.516;2023-09-18T04:54:12;93299.75;;;15.81
69420;BMP280;71621;52.030;113.516;2023-09-18T04:57:16;93297.72;;;15.81
69420;BMP280;71621;52.030;113.516;2023-09-18T05:00:21;93293.63;;;15.93
69420;BMP280;71621;52.030;113.516;2023-09-18T05:03:28;93286.91;;;15.92
69420;BMP280;71621;52.030;113.516;2023-09-18T05:06:32;93294.28;;;15.97
69420;BMP280;71621;52.030;113.516;2023-09-18T05:09:36;93291.53;;;16.07
69420;BMP280;71621;52.030;113.516;2023-09-18T05:12:41;93273.31;;;16.14
69420;BMP280;71621;52.030;113.516;2023-09-18T05:15:45;93273.25;;;16.20
69420;BMP280;71621;52.030;113.516;2023-09-18T05:18:48;93270.50;;;16.28
69420;BMP280;71621;52.030;113.516;2023-09-18T05:21:52;93269.81;;;16.34
69420;BMP280;71621;52.030;113.516;2023-09-18T05:24:56;93266.31;;;16.49
69420;BMP280;71621;52.030;113.516;2023-09-18T05:28:00;93266.84;;;16.68
69420;BMP280;71621;52.030;113.516;2023-09-18T05:31:04;93267.44;;;16.79
69420;BMP280;71621;52.030;113.516;2023-09-18T05:34:08;93254.47;;;16.96
69420;BMP280;71621;52.030;113.516;2023-09-18T05:37:11;93257.63;;;17.16
69420;BMP280;71621;52.030;113.516;2023-09-18T05:40:15;93256.16;;;17.29
69420;BMP280;71621;52.030;113.516;2023-09-18T05:43:18;93255.41;;;17.35
69420;BMP280;71621;52.030;113.516;2023-09-18T05:46:22;93255.81;;;17.56
69420;BMP280;71621;52.030;113.516;2023-09-18T05:49:25;93265.69;;;17.80
69420;BMP280;71621;52.030;113.516;2023-09-18T05:52:30;93258.84;;;17.85
69420;BMP280;71621;52.030;113.516;2023-09-18T05:55:34;93270.56;;;17.67
69420;BMP280;71621;52.030;113.516;2023-09-18T05:58:38;93264.03;;;17.46
69420;BMP280;71621;52.030;113.516;2023-09-18T06:01:42;93272.47;;;17.19
69420;BMP280;71621;52.030;113.516;2023-09-18T06:04:46;93260.47;;;17.02
69420;BMP280;71621;52.030;113.516;2023-09-18T06:07:50;93269.41;;;16.84
69420;BMP280;71621;52.030;113.516;2023-09-18T06:10:54;93274.31;;;16.60
69420;BMP280;71621;52.030;113.516;2023-09-18T06:13:58;93272.50;;;16.36
69420;BMP280;71621;52.030;113.516;2023-09-18T06:17:01;93271.84;;;16.33
69420;BMP280;71621;52.030;113.516;2023-09-18T06:20:06;93259.69;;;16.32
69420;BMP280;71621;52.030;113.516;2023-09-18T06:23:13;93260.97;;;16.43
69420;BMP280;71621;52.030;113.516;2023-09-18T06:26:17;93257.50;;;16.59
69420;BMP280;71621;52.030;113.516;2023-09-18T06:29:21;93253.97;;;16.75
69420;BMP280;71621;52.030;113.516;2023-09-18T06:32:24;93261.16;;;17.01
69420;BMP280;71621;52.030;113.516;2023-09-18T06:35:29;93258.97;;;17.17
69420;BMP280;71621;52.030;113.516;2023-09-18T06:38:32;93241.25;;;17.33
69420;BMP280;71621;52.030;113.516;2023-09-18T06:41:36;93251.16;;;17.52
69420;BMP280;71621;52.030;113.516;2023-09-18T06:44:39;93243.53;;;17.69
69420;BMP280;71621;52.030;113.516;2023-09-18T06:47:44;93248.00;;;17.87
69420;BMP280;71621;52.030;113.516;2023-09-18T06:50:47;93258.69;;;17.95
69420;BMP280;71621;52.030;113.516;2023-09-18T06:53:51;93247.19;;;17.96
69420;BMP280;71621;52.030;113.516;2023-09-18T06:56:55;93250.53;;;18.01
69420;BMP280;71621;52.030;113.516;2023-09-18T06:59:58;93249.09;;;18.06
69420;BMP280;71621;52.030;113.516;2023-09-18T07:03:02;93241.72;;;18.02
69420;BMP280;71621;52.030;113.516;2023-09-18T07:06:06;93247.81;;;17.99
69420;BMP280;71621;52.030;113.516;2023-09-18T07:09:09;93246.41;;;18.04
69420;BMP280;71621;52.030;113.516;2023-09-18T07:12:15;93248.25;;;18.18
69420;BMP280;71621;52.030;113.516;2023-09-18T07:15:18;93247.38;;;18.31
69420;BMP280;71621;52.030;113.516;2023-09-18T07:18:22;93252.09;;;18.33
69420;BMP280;71621;52.030;113.516;2023-09-18T07:21:25;93250.75;;;18.30
69420;BMP280;71621;52.030;113.516;2023-09-18T07:24:29;93247.50;;;18.23
69420;BMP280;71621;52.030;113.516;2023-09-18T07:27:33;93242.97;;;18.10
69420;BMP280;71621;52.030;113.516;2023-09-18T07:30:36;93239.75;;;17.97
69420;BMP280;71621;52.030;113.516;2023-09-18T07:33:41;93237.88;;;17.85
69420;BMP280;71621;52.030;113.516;2023-09-18T07:36:45;93239.34;;;17.76
69420;BMP280;71621;52.030;113.516;2023-09-18T07:39:49;93244.69;;;17.82
69420;BMP280;71621;52.030;113.516;2023-09-18T07:42:53;93239.19;;;17.88
69420;BMP280;71621;52.030;113.516;2023-09-18T07:45:56;93240.44;;;17.97
69420;BMP280;71621;52.030;113.516;2023-09-18T07:49:01;93238.41;;;17.96
69420;BMP280;71621;52.030;113.516;2023-09-18T07:52:05;93235.75;;;17.94
69420;BMP280;71621;52.030;113.516;2023-09-18T07:55:09;93232.94;;;18.02
69420;BMP280;71621;52.030;113.516;2023-09-18T07:58:12;93236.84;;;18.09
69420;BMP280;71621;52.030;113.516;2023-09-18T08:01:17;93234.72;;;18.18
69420;BMP280;71621;52.030;113.516;2023-09-18T08:04:20;93237.38;;;18.22
69420;BMP280;71621;52.030;113.516;2023-09-18T08:07:24;93235.94;;;18.27
69420;BMP280;71621;52.030;113.516;2023-09-18T08:10:28;93231.00;;;18.39
69420;BMP280;71621;52.030;113.516;2023-09-18T08:13:31;93233.63;;;18.46
69420;BMP280;71621;52.030;113.516;2023-09-18T08:16:37;93234.94;;;18.47
69420;BMP280;71621;52.030;113.516;2023-09-18T08:19:41;93236.94;;;18.48
69420;BMP280;71621;52.030;113.516;2023-09-18T08:22:45;93237.09;;;18.40
69420;BMP280;71621;52.030;113.516;2023-09-18T08:25:51;93242.50;;;18.40
69420;BMP280;71621;52.030;113.516;2023-09-18T08:28:58;93241.16;;;18.41
69420;BMP280;71621;52.030;113.516;2023-09-18T08:32:02;93247.09;;;18.48
69420;BMP280;71621;52.030;113.516;2023-09-18T08:35:06;93249.00;;;18.57
69420;BMP280;71621;52.030;113.516;2023-09-18T08:38:10;93254.41;;;18.57
69420;BMP280;71621;52.030;113.516;2023-09-18T08:41:14;93250.34;;;18.56
69420;BMP280;71621;52.030;113.516;2023-09-18T08:44:20;93251.66;;;18.59
69420;BMP280;71621;52.030;113.516;2023-09-18T08:47:25;93265.91;;;18.58
69420;BMP280;71621;52.030;113.516;2023-09-18T08:50:30;93246.34;;;18.53
69420;BMP280;71621;52.030;113.516;2023-09-18T08:53:35;93256.41;;;18.59
69420;BMP280;71621;52.030;113.516;2023-09-18T08:56:41;93251.63;;;18.63
69420;BMP280;71621;52.030;113.516;2023-09-18T08:59:46;93254.84;;;18.72
69420;BMP280;71621;52.030;113.516;2023-09-18T09:02:52;93258.31;;;18.66
69420;BMP280;71621;52.030;113.516;2023-09-18T09:05:58;93251.63;;;18.61
69420;BMP280;71621;52.030;113.516;2023-09-18T09:09:04;93259.06;;;18.61
69420;BMP280;71621;52.030;113.516;2023-09-18T09:12:08;93257.72;;;18.62
69420;BMP280;71621;52.030;113.516;2023-09-18T09:15:12;93265.22;;;18.57
69420;BMP280;71621;52.030;113.516;2023-09-18T09:18:15;93260.09;;;18.41
69420;BMP280;71621;52.030;113.516;2023-09-18T09:21:19;93265.06;;;18.24
69420;BMP280;71621;52.030;113.516;2023-09-18T09:24:43;93262.28;;;18.30
69420;BMP280;71621;52.030;113.516;2023-09-18T09:27:47;93270.47;;;18.24
69420;BMP280;71621;52.030;113.516;2023-09-18T09:31:00;93273.25;;;18.18
69420;BMP280;71621;52.030;113.516;2023-09-18T09:34:06;93273.50;;;18.02
69420;BMP280;71621;52.030;113.516;2023-09-18T09:37:12;93275.66;;;17.91
69420;BMP280;71621;52.030;113.516;2023-09-18T09:40:16;93285.88;;;17.85
69420;BMP280;71621;52.030;113.516;2023-09-18T09:43:21;93290.03;;;17.78
69420;BMP280;71621;52.030;113.516;2023-09-18T09:46:25;93278.00;;;17.68
69420;BMP280;71621;52.030;113.516;2023-09-18T09:49:45;93290.16;;;17.65
69420;BMP280;71621;52.030;113.516;2023-09-18T09:52:50;93297.03;;;17.58
69420;BMP280;71621;52.030;113.516;2023-09-18T09:55:54;93296.41;;;17.52
69420;BMP280;71621;52.030;113.516;2023-09-18T09:59:04;93303.28;;;17.43
69420;BMP280;71621;52.030;113.516;2023-09-18T10:02:11;93299.94;;;17.38
69420;BMP280;71621;52.030;113.516;2023-09-18T10:05:26;93306.06;;;17.33
69420;BMP280;71621;52.030;113.516;2023-09-18T10:08:32;93308.25;;;17.18
69420;BMP280;71621;52.030;113.516;2023-09-18T10:11:45;93311.06;;;17.08
69420;BMP280;71621;52.030;113.516;2023-09-18T10:14:52;93310.50;;;16.93
69420;BMP280;71621;52.030;113.516;2023-09-18T10:18:07;93313.34;;;16.77
69420;BMP280;71621;52.030;113.516;2023-09-18T10:21:25;93316.78;;;16.69
69420;BMP280;71621;52.030;113.516;2023-09-18T10:24:35;93312.16;;;16.55
69420;BMP280;71621;52.030;113.516;2023-09-18T10:27:48;93312.91;;;16.42
69420;BMP280;71621;52.030;113.516;2023-09-18T10:30:56;93324.47;;;16.24
69420;BMP280;71621;52.030;113.516;2023-09-18T10:34:00;93312.41;;;16.09
69420;BMP280;71621;52.030;113.516;2023-09-18T10:37:08;93318.53;;;16.03
69420;BMP280;71621;52.030;113.516;2023-09-18T10:40:13;93323.25;;;15.97
69420;BMP280;71621;52.030;113.516;2023-09-18T10:43:17;93321.97;;;15.86
69420;BMP280;71621;52.030;113.516;2023-09-18T10:46:21;93328.06;;;15.78
69420;BMP280;71621;52.030;113.516;2023-09-18T10:49:25;93339.53;;;15.68
69420;BMP280;71621;52.030;113.516;2023-09-18T10:52:29;93329.44;;;15.63
69420;BMP280;71621;52.030;113.516;2023-09-18T10:55:32;93336.88;;;15.54
69420;BMP280;71621;52.030;113.516;2023-09-18T10:58:36;93340.25;;;15.46
69420;BMP280;71621;52.030;113.516;2023-09-18T11:01:42;93338.94;;;15.41
69420;BMP280;71621;52.030;113.516;2023-09-18T11:04:45;93343.00;;;15.32
69420;BMP280;71621;52.030;113.516;2023-09-18T11:07:50;93347.69;;;15.26
69420;BMP280;71621;52.030;113.516;2023-09-18T11:11:18;93349.06;;;15.21
69420;BMP280;71621;52.030;113.516;2023-09-18T11:17:59;93354.44;;;15.04
69420;BMP280;71621;52.030;113.516;2023-09-18T11:21:10;93361.19;;;14.93
69420;BMP280;71621;52.030;113.516;2023-09-18T11:24:20;93361.84;;;14.90
69420;BMP280;71621;52.030;113.516;2023-09-18T11:27:25;93368.56;;;14.83
69420;BMP280;71621;52.030;113.516;2023-09-18T11:30:31;93373.28;;;14.80
69420;BMP280;71621;52.030;113.516;2023-09-18T11:33:38;93382.00;;;14.74
69420;BMP280;71621;52.030;113.516;2023-09-18T11:36:42;93375.97;;;14.70
69420;BMP280;71621;52.030;113.516;2023-09-18T11:39:46;93379.97;;;14.67
69420;BMP280;71621;52.030;113.516;2023-09-18T11:43:27;93384.66;;;14.66
69420;BMP280;71621;52.030;113.516;2023-09-18T11:46:34;93384.66;;;14.60
69420;BMP280;71621;52.030;113.516;2023-09-18T11:49:39;93385.34;;;14.57
69420;BMP280;71621;52.030;113.516;2023-09-18T11:52:45;93383.97;;;14.54
69420;BMP280;71621;52.030;113.516;2023-09-18T11:55:49;93394.06;;;14.49
69420;BMP280;71621;52.030;113.516;2023-09-18T11:58:53;93400.09;;;14.46
69420;BMP280;71621;52.030;113.516;2023-09-18T12:01:57;93404.13;;;14.41
69420;BMP280;71621;52.030;113.516;2023-09-18T12:05:16;93408.16;;;14.39
69420;BMP280;71621;52.030;113.516;2023-09-18T12:08:21;93414.16;;;14.30
69420;BMP280;71621;52.030;113.516;2023-09-18T12:11:25;93424.22;;;14.23
69420;BMP280;71621;52.030;113.516;2023-09-18T12:14:33;93419.50;;;14.20
69420;BMP280;71621;52.030;113.516;2023-09-18T12:17:37;93420.81;;;14.11
69420;BMP280;71621;52.030;113.516;2023-09-18T12:20:47;93429.53;;;14.09
69420;BMP280;71621;52.030;113.516;2023-09-18T12:23:51;93431.47;;;14.00
69420;BMP280;71621;52.030;113.516;2023-09-18T12:26:57;93436.19;;;13.96
69420;BMP280;71621;52.030;113.516;2023-09-18T12:30:02;93442.84;;;13.89
69420;BMP280;71621;52.030;113.516;2023-09-18T12:33:07;93440.09;;;13.81
69420;BMP280;71621;52.030;113.516;2023-09-18T12:36:14;93448.13;;;13.75
69420;BMP280;71621;52.030;113.516;2023-09-18T12:39:22;93452.06;;;13.61
69420;BMP280;71621;52.030;113.516;2023-09-18T12:42:26;93460.69;;;13.50
69420;BMP280;71621;52.030;113.516;2023-09-18T12:45:29;93460.63;;;13.40
69420;BMP280;71621;52.030;113.516;2023-09-18T12:48:40;93466.63;;;13.36
69420;BMP280;71621;52.030;113.516;2023-09-18T12:52:01;93467.97;;;13.35
69420;BMP280;71621;52.030;113.516;2023-09-18T12:55:21;93467.91;;;13.31
69420;BMP280;71621;52.030;113.516;2023-09-18T12:58:25;93470.56;;;13.27
69420;BMP280;71621;52.030;113.516;2023-09-18T13:01:29;93473.19;;;13.19
69420;BMP280;71621;52.030;113.516;2023-09-18T13:04:36;93483.25;;;13.16
69420;BMP280;71621;52.030;113.516;2023-09-18T13:07:44;93475.06;;;13.06
69420;BMP280;71621;52.030;113.516;2023-09-18T13:10:50;93474.97;;;12.98
69420;BMP280;71621;52.030;113.516;2023-09-18T13:13:57;93485.72;;;12.96
69420;BMP280;71621;52.030;113.516;2023-09-18T13:17:02;93485.66;;;12.92
69420;BMP280;71621;52.030;113.516;2023-09-18T13:20:11;93486.34;;;12.92
69420;BMP280;71621;52.030;113.516;2023-09-18T13:23:15;93489.66;;;12.89
69420;BMP280;71621;52.030;113.516;2023-09-18T13:26:23;93499.69;;;12.86
69420;BMP280;71621;52.030;113.516;2023-09-18T13:29:26;93500.34;;;12.83
69420;BMP280;71621;52.030;113.516;2023-09-18T13:32:30;93500.91;;;12.77
69420;BMP280;71621;52.030;113.516;2023-09-18T13:35:36;93498.19;;;12.73
69420;BMP280;71621;52.030;113.516;2023-09-18T13:38:40;93504.13;;;12.66
69420;BMP280;71621;52.030;113.516;2023-09-18T13:41:44;93503.34;;;12.57
69420;BMP280;71621;52.030;113.516;2023-09-18T13:44:47;93522.75;;;12.53
69420;BMP280;71621;52.030;113.516;2023-09-18T13:47:53;93518.00;;;12.50
69420;BMP280;71621;52.030;113.516;2023-09-18T13:50:57;93517.22;;;12.39
69420;BMP280;71621;52.030;113.516;2023-09-18T13:54:01;93520.44;;;12.29
69420;BMP280;71621;52.030;113.516;2023-09-18T13:57:07;93522.34;;;12.21
69420;BMP280;71621;52.030;113.516;2023-09-18T14:00:10;93528.22;;;12.11
69420;BMP280;71621;52.030;113.516;2023-09-18T14:03:15;93525.47;;;12.07
69420;BMP280;71621;52.030;113.516;2023-09-18T14:06:21;93535.41;;;12.01
69420;BMP280;71621;52.030;113.516;2023-09-18T14:09:24;93539.31;;;11.91
69420;BMP280;71621;52.030;113.516;2023-09-18T14:12:29;93533.75;;;11.79
69420;BMP280;71621;52.030;113.516;2023-09-18T14:15:32;93535.00;;;11.74
69420;BMP280;71621;52.030;113.516;2023-09-18T14:18:36;93540.94;;;11.69
69420;BMP280;71621;52.030;113.516;2023-09-18T14:21:40;93543.63;;;11.69
69420;BMP280;71621;52.030;113.516;2023-09-18T14:24:44;93532.78;;;11.60
69420;BMP280;71621;52.030;113.516;2023-09-18T14:27:47;93551.56;;;11.65
69420;BMP280;71621;52.030;113.516;2023-09-18T14:30:51;93552.75;;;11.55
69420;BMP280;71621;52.030;113.516;2023-09-18T14:33:55;93561.31;;;11.46
69420;BMP280;71621;52.030;113.516;2023-09-18T14:37:02;93559.06;;;11.34
69420;BMP280;71621;52.030;113.516;2023-09-18T14:40:07;93564.25;;;11.24
69420;BMP280;71621;52.030;113.516;2023-09-18T14:43:15;93562.00;;;11.12
69420;BMP280;71621;52.030;113.516;2023-09-18T14:46:18;93569.13;;;11.02
69420;BMP280;71621;52.030;113.516;2023-09-18T14:49:22;93571.72;;;10.96
69420;BMP280;71621;52.030;113.516;2023-09-18T14:52:26;93573.56;;;10.89
69420;BMP280;71621;52.030;113.516;2023-09-18T14:55:30;93578.75;;;10.81
69420;BMP280;71621;52.030;113.516;2023-09-18T14:58:33;93590.00;;;10.75
69420;BMP280;71621;52.030;113.516;2023-09-18T15:01:37;93589.97;;;10.73
69420;BMP280;71621;52.030;113.516;2023-09-18T15:04:41;93600.66;;;10.73
69420;BMP280;71621;52.030;113.516;2023-09-18T15:07:44;93610.72;;;10.75
69420;BMP280;71621;52.030;113.516;2023-09-18T15:10:48;93608.78;;;10.77
69420;BMP280;71621;52.030;113.516;2023-09-18T15:13:51;93614.78;;;10.78
69420;BMP280;71621;52.030;113.516;2023-09-18T15:16:55;93608.78;;;10.77
69420;BMP280;71621;52.030;113.516;2023-09-18T15:19:59;93618.78;;;10.77
69420;BMP280;71621;52.030;113.516;2023-09-18T15:23:03;93616.03;;;10.73
69420;BMP280;71621;52.030;113.516;2023-09-18T15:26:10;93619.25;;;10.67
69420;BMP280;71621;52.030;113.516;2023-09-18T15:29:14;93619.69;;;10.57
69420;BMP280;71621;52.030;113.516;2023-09-18T15:32:19;93620.25;;;10.52
69420;BMP280;71621;52.030;113.516;2023-09-18T15:35:24;93630.88;;;10.50
69420;BMP280;71621;52.030;113.516;2023-09-18T15:38:28;93633.44;;;10.44
69420;BMP280;71621;52.030;113.516;2023-09-18T15:41:32;93645.94;;;10.37
69420;BMP280;71621;52.030;113.516;2023-09-18T15:44:36;93647.16;;;10.32
69420;BMP280;71621;52.030;113.516;2023-09-18T15:47:41;93651.06;;;10.29
69420;BMP280;71621;52.030;113.516;2023-09-18T15:50:48;93646.41;;;10.30
69420;BMP280;71621;52.030;113.516;2023-09-18T15:53:51;93651.75;;;10.30
69420;BMP280;71621;52.030;113.516;2023-09-18T15:56:58;93661.06;;;10.27
69420;BMP280;71621;52.030;113.516;2023-09-18T16:00:05;93655.66;;;10.24
69420;BMP280;71621;52.030;113.516;2023-09-18T16:03:15;93662.25;;;10.21
69420;BMP280;71621;52.030;113.516;2023-09-18T16:06:19;93662.38;;;10.25
69420;BMP280;71621;52.030;113.516;2023-09-18T16:09:23;93669.91;;;10.33
69420;BMP280;71621;52.030;113.516;2023-09-18T16:12:27;93671.34;;;10.38
69420;BMP280;71621;52.030;113.516;2023-09-18T16:15:31;93674.63;;;10.35
69420;BMP280;71621;52.030;113.516;2023-09-18T16:18:34;93681.22;;;10.32
69420;BMP280;71621;52.030;113.516;2023-09-18T16:21:39;93674.31;;;10.22
69420;BMP280;71621;52.030;113.516;2023-09-18T16:24:42;93691.41;;;10.11
69420;BMP280;71621;52.030;113.516;2023-09-18T16:27:46;93689.03;;;9.98
69420;BMP280;71621;52.030;113.516;2023-09-18T16:30:50;93690.81;;;9.89
69420;BMP280;71621;52.030;113.516;2023-09-18T16:33:53;93698.72;;;9.85
69420;BMP280;71621;52.030;113.516;2023-09-18T16:36:57;93699.25;;;9.79
69420;BMP280;71621;52.030;113.516;2023-09-18T16:40:02;93701.19;;;9.77
69420;BMP280;71621;52.030;113.516;2023-09-18T16:43:06;93702.44;;;9.74
69420;BMP280;71621;52.030;113.516;2023-09-18T16:46:09;93710.38;;;9.72
69420;BMP280;71621;52.030;113.516;2023-09-18T16:49:13;93713.09;;;9.74
69420;BMP280;71621;52.030;113.516;2023-09-18T16:52:20;93717.09;;;9.73
69420;BMP280;71621;52.030;113.516;2023-09-18T16:55:25;93714.25;;;9.67
69420;BMP280;71621;52.030;113.516;2023-09-18T16:58:29;93722.06;;;9.61
69420;BMP280;71621;52.030;113.516;2023-09-18T17:01:33;93717.94;;;9.55
69420;BMP280;71621;52.030;113.516;2023-09-18T17:04:36;93727.78;;;9.49
69420;BMP280;71621;52.030;113.516;2023-09-18T17:07:43;93733.53;;;9.41
69420;BMP280;71621;52.030;113.516;2023-09-18T17:10:46;93723.44;;;9.38
69420;BMP280;71621;52.030;113.516;2023-09-18T17:13:50;93733.44;;;9.37
69420;BMP280;71621;52.030;113.516;2023-09-18T17:16:54;93732.00;;;9.34
69420;BMP280;71621;52.030;113.516;2023-09-18T17:19:58;93730.59;;;9.31
69420;BMP280;71621;52.030;113.516;2023-09-18T17:23:02;93728.94;;;9.20
69420;BMP280;71621;52.030;113.516;2023-09-18T17:26:07;93730.53;;;9.07